Time;durP1;ratioP1;P1;durP2;ratioP2;P2;SDS_P1;SDS_P2;PMS_P1;PMS_P2;Temp;Humidity;BMP_temperature;BMP_pressure;BME280_temperature;BME280_humidity;BME280_pressure;Samples;Min_cycle;Max_cycle;Signal;HPM_P1;HPM_P2
2022/07/06 00:01:10;;;;;;;17.13;9.98;;;;;;;20.28;74.84;93884.25;5144246;27;20025;-74
2022/07/06 00:03:35;;;;;;;13.95;8.40;;;;;;;20.07;74.67;93892.94;5144109;27;20060;-74
2022/07/06 00:06:01;;;;;;;13.18;7.80;;;;;;;19.90;74.92;93910.56;5144169;27;20048;-74
2022/07/06 00:08:26;;;;;;;10.38;7.60;;;;;;;19.65;75.70;93902.94;5144185;27;20030;-74
2022/07/06 00:10:52;;;;;;;13.07;9.27;;;;;;;19.34;77.54;93907.59;5143878;27;20317;-74
2022/07/06 00:13:17;;;;;;;14.65;9.07;;;;;;;19.11;79.11;93910.41;5143867;27;20060;-74
2022/07/06 00:15:43;;;;;;;14.98;9.40;;;;;;;18.97;81.23;93913.66;5144250;27;20035;-74
2022/07/06 00:18:08;;;;;;;15.77;9.50;;;;;;;18.85;83.04;93924.69;5144098;27;20320;-74
2022/07/06 00:20:34;;;;;;;19.20;11.40;;;;;;;18.76;84.70;93937.63;5143707;27;20049;-74
2022/07/06 00:22:59;;;;;;;19.30;10.95;;;;;;;18.74;85.16;93945.31;5144095;27;20015;-74
2022/07/06 00:25:24;;;;;;;15.23;10.18;;;;;;;18.67;86.40;93934.41;5143917;27;20043;-74
2022/07/06 00:27:50;;;;;;;19.60;10.65;;;;;;;18.57;86.75;93938.50;5143796;27;20042;-74
2022/07/06 00:30:15;;;;;;;14.38;11.07;;;;;;;18.59;87.13;93949.72;5144115;28;20068;-74
2022/07/06 00:32:41;;;;;;;13.82;10.50;;;;;;;18.60;87.97;93954.75;5143814;28;20309;-74
2022/07/06 00:35:07;;;;;;;18.20;11.38;;;;;;;18.63;87.79;93955.94;5143710;28;20102;-74
2022/07/06 00:37:32;;;;;;;19.50;11.88;;;;;;;18.69;87.60;93959.13;5143922;28;20325;-74
2022/07/06 00:39:57;;;;;;;16.50;11.23;;;;;;;18.76;87.70;93954.59;5143741;28;20314;-74
2022/07/06 00:42:24;;;;;;;16.70;11.55;;;;;;;18.80;87.70;93960.84;5143532;28;20043;-74
2022/07/06 00:44:50;;;;;;;19.65;11.07;;;;;;;18.82;87.11;93952.41;5143796;28;20023;-74
2022/07/06 00:47:15;;;;;;;16.08;10.23;;;;;;;18.84;86.84;93952.81;5143685;28;20019;-74
2022/07/06 00:52:24;;;;;;;20.88;10.63;;;;;;;18.91;87.21;93947.53;5143800;28;20026;-74
2022/07/06 00:54:50;;;;;;;13.60;10.45;;;;;;;18.88;87.17;93948.25;5143559;28;20209;-74
2022/07/06 00:57:15;;;;;;;16.92;10.85;;;;;;;18.92;87.14;93945.59;5143519;28;20031;-74
2022/07/06 00:59:42;;;;;;;15.05;11.43;;;;;;;18.94;87.26;93941.41;5143668;28;20019;-74
2022/07/06 01:02:08;;;;;;;17.23;10.85;;;;;;;18.97;87.17;93931.78;5143577;28;20030;-74
2022/07/06 01:04:33;;;;;;;15.82;10.57;;;;;;;18.99;86.08;93918.69;5143369;28;20336;-74
2022/07/06 01:06:58;;;;;;;20.08;11.55;;;;;;;19.01;85.14;93906.41;5143485;28;20020;-74
2022/07/06 01:09:24;;;;;;;14.73;10.10;;;;;;;19.01;85.51;93908.28;5144390;27;20023;-74
2022/07/06 01:11:52;;;;;;;14.35;10.25;;;;;;;19.06;85.40;93907.22;5147244;27;20262;-74
2022/07/06 01:14:17;;;;;;;17.10;10.05;;;;;;;19.05;85.04;93901.06;5147537;27;20045;-74
2022/07/06 01:16:43;;;;;;;11.40;9.18;;;;;;;19.08;84.44;93899.53;5147398;27;20022;-74
2022/07/06 01:19:08;;;;;;;13.40;9.32;;;;;;;19.08;84.49;93911.09;5147296;27;20030;-74
2022/07/06 01:21:37;;;;;;;17.63;10.88;;;;;;;19.03;83.89;93901.41;5147297;27;20023;-74
2022/07/06 01:24:03;;;;;;;16.95;11.32;;;;;;;18.99;83.87;93900.56;5147128;27;20221;-74
2022/07/06 01:26:29;;;;;;;13.52;9.27;;;;;;;18.97;84.15;93900.16;5147052;27;20031;-74
2022/07/06 01:28:54;;;;;;;25.77;10.68;;;;;;;18.97;83.92;93912.88;5147274;27;20031;-74
2022/07/06 01:31:23;;;;;;;15.98;9.70;;;;;;;18.89;83.84;93917.41;5147105;27;20049;-74
2022/07/06 01:33:50;;;;;;;14.32;9.68;;;;;;;18.78;84.16;93908.34;5146925;27;20082;-73
2022/07/06 01:36:16;;;;;;;15.27;10.68;;;;;;;18.71;84.34;93909.03;5146872;27;20023;-73
2022/07/06 01:38:49;;;;;;;15.75;10.20;;;;;;;18.59;84.94;93915.41;5147035;27;20019;-73
2022/07/06 01:41:16;;;;;;;15.15;10.45;;;;;;;18.55;85.53;93908.38;5147009;27;20027;-73
2022/07/06 01:43:42;;;;;;;17.73;10.95;;;;;;;18.48;85.97;93902.88;5146795;27;20063;-73
2022/07/06 01:46:07;;;;;;;14.32;11.32;;;;;;;18.42;86.02;93905.13;5146894;27;20034;-73
2022/07/06 01:48:33;;;;;;;15.80;10.05;;;;;;;18.38;86.73;93901.56;5146559;27;20042;-73
2022/07/06 01:50:58;;;;;;;15.27;10.35;;;;;;;18.37;86.36;93905.41;5146754;27;20023;-73
2022/07/06 01:53:24;;;;;;;20.33;10.38;;;;;;;18.37;86.13;93906.19;5146615;27;20030;-73
2022/07/06 01:55:49;;;;;;;17.10;11.05;;;;;;;18.38;85.88;93907.75;5146525;27;20050;-73
2022/07/06 01:58:15;;;;;;;15.13;10.23;;;;;;;18.35;86.10;93913.06;5146905;27;20015;-73
2022/07/06 02:00:41;;;;;;;15.18;11.20;;;;;;;18.34;86.04;93912.31;5146603;27;20025;-73
2022/07/06 02:03:06;;;;;;;15.77;9.98;;;;;;;18.37;85.34;93921.59;5146356;27;20019;-74
2022/07/06 02:05:31;;;;;;;16.35;9.50;;;;;;;18.38;85.30;93921.25;5146439;27;20022;-74
2022/07/06 02:07:57;;;;;;;11.93;9.45;;;;;;;18.40;85.00;93915.50;5146397;27;20019;-73
2022/07/06 02:10:22;;;;;;;14.35;9.82;;;;;;;18.42;84.65;93911.28;5146398;27;20027;-74
2022/07/06 02:12:49;;;;;;;12.27;9.40;;;;;;;18.41;84.54;93911.63;5146210;27;20015;-74
2022/07/06 02:15:14;;;;;;;17.27;10.65;;;;;;;18.43;84.06;93915.53;5146479;27;20340;-74
2022/07/06 02:17:40;;;;;;;16.20;10.18;;;;;;;18.47;83.30;93910.19;5146194;27;20015;-74
2022/07/06 02:20:06;;;;;;;12.75;9.93;;;;;;;18.48;83.57;93917.16;5145926;27;20161;-73
2022/07/06 02:22:32;;;;;;;13.50;10.13;;;;;;;18.52;83.62;93909.09;5146007;27;20011;-74
2022/07/06 02:24:57;;;;;;;17.90;10.40;;;;;;;18.53;83.66;93911.44;5145941;27;20053;-74
2022/07/06 02:27:22;;;;;;;19.58;10.40;;;;;;;18.59;83.27;93917.31;5145999;27;20020;-74
2022/07/06 02:29:48;;;;;;;17.15;9.27;;;;;;;18.64;83.07;93911.59;5146013;27;20023;-74
2022/07/06 02:32:13;;;;;;;18.58;10.00;;;;;;;18.69;82.29;93905.13;5146127;27;20072;-74
2022/07/06 02:34:39;;;;;;;11.55;8.00;;;;;;;18.72;79.56;93904.38;5145782;27;20209;-74
2022/07/06 02:37:04;;;;;;;17.60;9.45;;;;;;;18.79;80.32;93908.00;5145644;27;20309;-73
2022/07/06 02:39:30;;;;;;;16.73;9.57;;;;;;;18.80;79.90;93901.44;5145802;27;20027;-74
2022/07/06 02:41:56;;;;;;;13.18;9.15;;;;;;;18.84;80.08;93904.22;5145579;27;20043;-74
2022/07/06 02:44:21;;;;;;;15.43;8.77;;;;;;;18.87;80.05;93898.09;5145420;27;20023;-74
2022/07/06 02:46:46;;;;;;;14.00;7.47;;;;;;;18.90;79.99;93902.75;5145787;27;20369;-74
2022/07/06 02:49:12;;;;;;;12.27;8.95;;;;;;;18.93;79.69;93904.75;5145559;27;20050;-74
2022/07/06 02:51:37;;;;;;;12.43;8.70;;;;;;;18.97;80.05;93913.66;5145369;27;20048;-74
2022/07/06 02:54:03;;;;;;;15.35;8.57;;;;;;;18.99;80.10;93908.69;5145526;27;20372;-74
2022/07/06 02:56:28;;;;;;;15.35;8.40;;;;;;;19.02;79.84;93912.56;5145358;27;20019;-74
2022/07/06 02:58:54;;;;;;;11.52;8.32;;;;;;;19.06;80.27;93907.22;5145212;27;20019;-74
2022/07/06 03:01:19;;;;;;;10.82;8.57;;;;;;;19.08;80.09;93907.63;5126982;27;20026;-74
2022/07/06 03:03:45;;;;;;;15.77;8.57;;;;;;;19.07;79.34;93909.56;5145410;27;20321;-74
2022/07/06 03:06:10;;;;;;;14.73;8.82;;;;;;;19.03;78.89;93904.09;5145059;27;20028;-74
2022/07/06 03:08:36;;;;;;;15.95;9.30;;;;;;;19.03;79.01;93914.13;5144997;27;20352;-74
2022/07/06 03:11:01;;;;;;;14.57;8.30;;;;;;;19.00;79.52;93918.31;5145213;27;20030;-74
2022/07/06 03:13:28;;;;;;;13.15;8.38;;;;;;;18.96;78.56;93909.41;5145092;27;20023;-74
2022/07/06 03:15:54;;;;;;;13.75;8.65;;;;;;;18.93;77.81;93904.75;5144789;27;20052;-74
2022/07/06 03:18:19;;;;;;;11.90;8.27;;;;;;;18.85;77.36;93911.19;5144964;27;20046;-74
2022/07/06 03:20:45;;;;;;;11.70;7.40;;;;;;;18.80;75.92;93911.47;5145039;27;20031;-74
2022/07/06 03:23:10;;;;;;;11.65;5.93;;;;;;;18.69;74.47;93919.41;5144610;27;20344;-73
2022/07/06 03:25:35;;;;;;;9.07;5.45;;;;;;;18.57;74.73;93920.38;5144926;27;20043;-74
2022/07/06 03:28:01;;;;;;;11.13;6.10;;;;;;;18.45;74.88;93917.88;5144924;27;20031;-73
2022/07/06 03:30:27;;;;;;;10.13;5.90;;;;;;;18.37;75.91;93918.91;5144552;27;20031;-73
2022/07/06 03:32:52;;;;;;;10.10;5.30;;;;;;;18.31;75.58;93928.44;5144097;27;20027;-74
2022/07/06 03:35:18;;;;;;;11.38;5.32;;;;;;;18.24;76.13;93937.19;5144539;27;20030;-74
2022/07/06 03:37:43;;;;;;;9.68;5.40;;;;;;;18.15;74.85;93934.72;5144764;27;20094;-74
2022/07/06 03:40:09;;;;;;;9.30;5.13;;;;;;;18.18;76.05;93917.81;5144631;27;20364;-74
2022/07/06 03:42:36;;;;;;;10.05;5.60;;;;;;;18.24;75.67;93931.78;5144415;27;20043;-74
2022/07/06 03:45:04;;;;;;;7.63;5.10;;;;;;;18.25;76.13;93926.00;5144531;27;20030;-74
2022/07/06 03:47:29;;;;;;;12.45;5.28;;;;;;;18.26;76.20;93932.22;5144490;27;20027;-74
2022/07/06 03:49:55;;;;;;;7.25;4.80;;;;;;;18.30;75.85;93933.06;5144316;27;20106;-74
2022/07/06 03:52:20;;;;;;;8.43;5.40;;;;;;;18.30;76.23;93930.34;5144464;27;20406;-74
2022/07/06 03:54:46;;;;;;;8.57;5.07;;;;;;;18.28;76.12;93939.94;5144346;27;20031;-74
2022/07/06 03:57:13;;;;;;;19.45;5.35;;;;;;;18.27;75.23;93939.16;5125972;27;20015;-74
2022/07/06 03:59:41;;;;;;;12.20;4.20;;;;;;;18.27;74.69;93938.38;5144311;27;20023;-74
2022/07/06 04:02:06;;;;;;;7.60;4.35;;;;;;;18.31;75.33;93939.22;5144179;27;20031;-73
2022/07/06 04:04:34;;;;;;;11.90;5.35;;;;;;;18.35;75.21;93940.06;5144120;27;20022;-74
2022/07/06 04:06:59;;;;;;;13.23;5.85;;;;;;;18.37;75.70;93946.66;5144200;27;20059;-74
2022/07/06 04:09:25;;;;;;;8.50;4.63;;;;;;;18.42;76.30;93940.19;5144221;27;20023;-74
2022/07/06 04:11:50;;;;;;;12.93;5.90;;;;;;;18.44;75.47;93949.47;5144230;27;20076;-73
2022/07/06 04:14:16;;;;;;;10.05;4.80;;;;;;;18.43;76.35;93939.81;5144116;27;20023;-73
2022/07/06 04:16:42;;;;;;;12.80;5.80;;;;;;;18.56;76.68;93950.41;5143780;27;20027;-73
2022/07/06 04:19:07;;;;;;;8.73;5.03;;;;;;;18.56;76.40;93953.13;5144014;27;20026;-73
2022/07/06 04:21:32;;;;;;;11.68;5.80;;;;;;;18.60;74.30;93951.25;5144128;27;20204;-73
2022/07/06 04:23:58;;;;;;;11.70;4.90;;;;;;;18.66;74.78;93944.41;5143821;27;20095;-73
2022/07/06 04:26:23;;;;;;;8.32;5.13;;;;;;;18.73;75.51;93943.75;5143830;27;20212;-73
2022/07/06 04:28:49;;;;;;;8.45;4.82;;;;;;;18.78;75.45;93941.50;5143779;27;20373;-73
2022/07/06 04:31:15;;;;;;;8.68;4.95;;;;;;;18.82;75.65;93955.09;5144014;27;20025;-73
2022/07/06 04:33:42;;;;;;;14.75;5.03;;;;;;;18.89;75.63;93952.53;5143690;28;20064;-73
2022/07/06 04:36:08;;;;;;;9.50;5.53;;;;;;;18.91;74.82;93963.75;5143675;28;20137;-73
2022/07/06 04:38:34;;;;;;;13.82;5.47;;;;;;;18.87;74.36;93968.31;5143738;28;20019;-73
2022/07/06 04:40:59;;;;;;;7.55;4.97;;;;;;;18.82;74.56;93972.06;5143868;28;20350;-74
2022/07/06 04:43:25;;;;;;;10.60;5.85;;;;;;;18.85;75.09;93962.50;5143481;27;20214;-74
2022/07/06 04:45:50;;;;;;;10.10;5.72;;;;;;;18.83;75.77;93970.94;5147070;27;20021;-74
2022/07/06 04:48:15;;;;;;;9.40;5.72;;;;;;;18.78;75.18;93983.94;5147945;27;20011;-74
2022/07/06 04:50:41;;;;;;;10.25;5.45;;;;;;;18.70;74.50;94001.94;5147793;27;20041;-74
2022/07/06 04:53:06;;;;;;;8.95;5.60;;;;;;;18.73;76.00;94005.84;5147729;27;20034;-74
2022/07/06 04:55:32;;;;;;;19.45;6.35;;;;;;;18.61;76.55;93996.78;5147624;27;20034;-74
2022/07/06 04:57:57;;;;;;;25.95;8.32;;;;;;;18.61;76.43;93999.50;5147465;27;20313;-73
2022/07/06 05:00:23;;;;;;;14.45;7.22;;;;;;;18.31;77.43;94012.06;5147187;27;20090;-73
2022/07/06 05:02:49;;;;;;;12.23;7.63;;;;;;;18.13;78.02;94019.81;5147474;27;20033;-74
2022/07/06 05:05:14;;;;;;;14.32;7.47;;;;;;;18.08;78.24;94012.81;5147774;27;20023;-74
2022/07/06 05:07:40;;;;;;;12.75;7.07;;;;;;;17.97;79.13;94015.31;5147523;27;20030;-74
2022/07/06 05:10:07;;;;;;;13.35;7.18;;;;;;;17.89;79.72;94019.00;5147367;27;20023;-74
2022/07/06 05:12:33;;;;;;;14.55;8.07;;;;;;;17.90;80.00;94017.09;5147283;27;20019;-73
2022/07/06 05:14:59;;;;;;;14.15;7.57;;;;;;;17.93;79.63;94011.75;5147412;27;20255;-73
2022/07/06 05:17:25;;;;;;;15.55;9.88;;;;;;;18.00;80.35;94021.91;5147193;27;20038;-73
2022/07/06 05:19:50;;;;;;;16.42;8.95;;;;;;;18.05;79.44;94018.91;5147503;27;20243;-75
2022/07/06 05:22:15;;;;;;;12.73;7.95;;;;;;;18.14;78.19;94024.88;5147496;27;20019;-73
2022/07/06 05:24:41;;;;;;;10.90;7.00;;;;;;;18.33;78.21;94028.69;5147231;27;20221;-73
2022/07/06 05:27:06;;;;;;;11.13;7.82;;;;;;;18.48;79.03;94035.91;5147147;27;20015;-73
2022/07/06 05:29:32;;;;;;;13.35;6.90;;;;;;;18.39;75.03;94027.25;5147128;27;20022;-73
2022/07/06 05:31:57;;;;;;;17.45;8.73;;;;;;;18.42;76.19;94037.34;5147222;27;20143;-73
2022/07/06 05:34:23;;;;;;;15.48;7.45;;;;;;;18.42;76.19;94038.13;5147001;27;20023;-73
2022/07/06 05:36:48;;;;;;;13.60;7.93;;;;;;;18.56;75.16;94034.91;5147040;27;20090;-73
2022/07/06 05:39:18;;;;;;;14.27;7.20;;;;;;;18.58;74.12;94035.31;5146967;27;20216;-73
2022/07/06 05:41:44;;;;;;;13.35;7.35;;;;;;;18.64;75.77;94028.47;5146638;27;20054;-73
2022/07/06 05:44:09;;;;;;;10.20;6.25;;;;;;;18.67;73.05;94032.38;5146448;27;20023;-73
2022/07/06 05:46:35;;;;;;;15.30;6.80;;;;;;;18.72;73.46;94042.84;5146644;27;20022;-73
2022/07/06 05:51:44;;;;;;;12.20;7.32;;;;;;;18.69;72.83;94040.88;5146689;27;20022;-73
2022/07/06 05:54:09;;;;;;;10.90;6.53;;;;;;;18.74;73.12;94056.00;5146404;27;20015;-74
2022/07/06 05:56:35;;;;;;;15.88;7.88;;;;;;;18.79;72.76;94040.31;5145764;27;20023;-74
2022/07/06 05:59:00;;;;;;;15.07;7.80;;;;;;;18.79;72.67;94037.63;5146532;27;20041;-81
2022/07/06 06:01:26;;;;;;;13.48;7.38;;;;;;;18.97;74.51;94039.81;5146032;27;20035;-79
2022/07/06 06:03:51;;;;;;;9.27;6.82;;;;;;;18.95;72.02;94042.91;5146267;27;20011;-79
2022/07/06 06:06:16;;;;;;;14.80;7.22;;;;;;;19.03;73.59;94044.56;5146274;27;20023;-79
2022/07/06 06:08:42;;;;;;;11.27;7.63;;;;;;;19.14;72.74;94044.72;5146049;27;20026;-79
2022/07/06 06:11:07;;;;;;;15.88;8.02;;;;;;;19.07;71.31;94033.03;5146092;27;20430;-81
2022/07/06 06:13:33;;;;;;;20.83;7.18;;;;;;;19.16;72.17;94047.06;5146101;27;20034;-80
2022/07/06 06:15:58;;;;;;;11.55;7.10;;;;;;;19.15;71.37;94040.91;5145987;27;20026;-81
2022/07/06 06:18:24;;;;;;;11.90;6.60;;;;;;;19.16;71.05;94039.75;5145992;27;20022;-79
2022/07/06 06:20:49;;;;;;;14.30;7.82;;;;;;;19.22;71.02;94045.63;5145425;27;20023;-81
2022/07/06 06:23:15;;;;;;;15.70;8.55;;;;;;;19.34;71.17;94040.00;5146109;27;20305;-81
2022/07/06 06:25:40;;;;;;;10.05;7.50;;;;;;;19.38;70.34;94038.13;5126519;27;20107;-80
2022/07/06 06:28:07;;;;;;;12.63;7.28;;;;;;;19.42;69.53;94038.19;5145685;27;20090;-80
2022/07/06 06:30:33;;;;;;;12.20;7.70;;;;;;;19.48;69.78;94027.81;5145751;27;20329;-80
2022/07/06 06:33:18;;;;;;;12.10;7.70;;;;;;;19.52;70.26;94034.06;5145869;27;20023;-80
2022/07/06 06:35:44;;;;;;;14.05;7.68;;;;;;;19.54;70.88;94029.06;5145488;27;20023;-80
2022/07/06 06:38:10;;;;;;;15.73;7.90;;;;;;;19.53;72.10;94027.53;5127180;27;20336;-81
2022/07/06 06:40:35;;;;;;;11.70;7.95;;;;;;;19.59;72.61;94034.94;5145438;27;20094;-81
2022/07/06 06:43:01;;;;;;;14.10;8.73;;;;;;;19.59;72.02;94031.47;5145308;27;20059;-81
2022/07/06 06:45:26;;;;;;;15.65;8.85;;;;;;;19.59;72.41;94032.25;5127316;27;20312;-81
2022/07/06 06:47:52;;;;;;;19.48;9.73;;;;;;;19.65;72.34;94024.59;5145276;27;20023;-81
2022/07/06 06:50:17;;;;;;;15.90;9.18;;;;;;;19.70;72.58;94032.41;5145485;27;20309;-81
2022/07/06 06:52:43;;;;;;;13.90;8.57;;;;;;;19.67;71.79;94026.94;5145206;27;20022;-82
2022/07/06 06:55:08;;;;;;;18.52;9.60;;;;;;;19.80;72.25;94028.28;5144525;27;20038;-91
2022/07/06 06:57:34;;;;;;;15.57;8.90;;;;;;;19.74;71.99;94027.84;5145661;27;20018;-89
2022/07/06 06:59:59;;;;;;;15.48;8.68;;;;;;;19.68;71.50;94033.91;5144478;27;20018;-88
2022/07/06 07:02:25;;;;;;;18.65;9.10;;;;;;;19.62;71.27;94036.13;5145992;27;20023;-87
2022/07/06 07:04:50;;;;;;;14.27;8.98;;;;;;;19.56;71.07;94030.28;5145213;27;20248;-85
2022/07/06 07:07:16;;;;;;;12.55;9.30;;;;;;;19.53;70.31;94035.63;5144365;27;20361;-84
2022/07/06 07:09:41;;;;;;;17.83;10.55;;;;;;;19.59;70.76;94032.25;5145033;27;20019;-83
2022/07/06 07:12:07;;;;;;;19.38;9.85;;;;;;;19.68;71.69;94031.19;5144880;27;20019;-82
2022/07/06 07:14:33;;;;;;;19.55;9.15;;;;;;;19.77;69.94;94037.91;5144789;27;20243;-84
2022/07/06 07:16:58;;;;;;;17.23;10.02;;;;;;;19.88;69.62;94038.03;5144839;27;20023;-87
2022/07/06 07:19:23;;;;;;;15.63;10.90;;;;;;;19.93;70.46;94031.56;5144654;27;20321;-83
2022/07/06 07:21:49;;;;;;;14.50;9.63;;;;;;;19.91;71.15;94039.25;5145008;27;20084;-82
2022/07/06 07:24:14;;;;;;;19.90;10.50;;;;;;;20.03;71.32;94044.44;5144861;27;20285;-83
2022/07/06 07:26:40;;;;;;;17.80;10.40;;;;;;;19.92;69.51;94032.69;5144435;27;20032;-82
2022/07/06 07:29:05;;;;;;;14.75;10.52;;;;;;;19.83;69.61;94036.44;5144984;27;20046;-82
2022/07/06 07:31:31;;;;;;;20.65;11.57;;;;;;;19.93;70.20;94034.25;5144606;27;20140;-84
2022/07/06 07:33:58;;;;;;;16.80;10.77;;;;;;;19.93;70.27;94028.84;5144806;27;20105;-84
2022/07/06 07:36:24;;;;;;;23.13;13.45;;;;;;;19.92;70.44;94046.22;5144599;27;20299;-88
2022/07/06 07:38:50;;;;;;;14.98;10.73;;;;;;;20.05;70.98;94042.13;5144587;27;20023;-85
2022/07/06 07:41:16;;;;;;;14.13;10.38;;;;;;;20.18;70.46;94037.25;5144452;27;20045;-83
2022/07/06 07:43:42;;;;;;;24.13;11.57;;;;;;;20.35;69.71;94038.59;5144315;27;20047;-87
2022/07/06 07:46:08;;;;;;;19.88;11.88;;;;;;;20.44;70.25;94036.38;5144572;27;20042;-85
2022/07/06 07:48:33;;;;;;;18.48;11.05;;;;;;;20.45;69.12;94032.50;5144118;27;20030;-85
2022/07/06 07:50:59;;;;;;;19.73;11.23;;;;;;;20.54;69.00;94038.41;5144177;27;20060;-82
2022/07/06 07:53:24;;;;;;;19.13;11.23;;;;;;;20.49;69.14;94033.31;5144294;27;20041;-83
2022/07/06 07:55:50;;;;;;;13.95;10.15;;;;;;;20.50;68.66;94039.53;5125746;27;20313;-84
2022/07/06 07:58:15;;;;;;;17.95;11.02;;;;;;;20.51;68.03;94030.25;5144149;27;20086;-84
2022/07/06 08:00:40;;;;;;;16.17;10.85;;;;;;;20.65;67.97;94030.41;5144336;27;20019;-89
2022/07/06 08:03:06;;;;;;;16.88;10.40;;;;;;;20.59;67.66;94029.19;5143990;27;20031;-80
2022/07/06 08:05:31;;;;;;;15.82;11.48;;;;;;;20.54;68.17;94024.88;5143716;27;20203;-81
2022/07/06 08:07:57;;;;;;;14.07;11.18;;;;;;;20.46;68.07;94033.31;5144172;27;20086;-82
2022/07/06 08:10:22;;;;;;;13.77;10.30;;;;;;;20.53;67.49;94034.13;5143898;27;20025;-81
2022/07/06 08:12:48;;;;;;;13.55;11.15;;;;;;;20.58;67.20;94035.75;5143979;27;20053;-82
2022/07/06 08:15:13;;;;;;;15.95;10.85;;;;;;;20.51;67.37;94035.66;5143774;27;20038;-82
2022/07/06 08:17:39;;;;;;;17.50;11.00;;;;;;;20.68;67.20;94040.50;5143897;27;20106;-83
2022/07/06 08:20:06;;;;;;;17.40;10.57;;;;;;;20.82;68.11;94037.13;5143450;27;20022;-88
2022/07/06 08:22:32;;;;;;;15.40;10.75;;;;;;;20.94;67.68;94047.69;5143659;27;20360;-82
2022/07/06 08:24:57;;;;;;;20.35;10.35;;;;;;;21.07;67.28;94042.00;5143734;27;20019;-81
2022/07/06 08:27:23;;;;;;;18.33;10.00;;;;;;;21.27;65.46;94032.47;5143581;27;20041;-81
2022/07/06 08:29:49;;;;;;;12.13;9.63;;;;;;;21.45;66.43;94038.03;5144328;27;20083;-83
2022/07/06 08:32:15;;;;;;;18.75;10.43;;;;;;;21.54;65.64;94035.00;5143746;27;20019;-83
2022/07/06 08:34:40;;;;;;;16.50;9.95;;;;;;;21.64;66.39;94028.84;5143557;28;20045;-81
2022/07/06 08:37:06;;;;;;;13.75;9.85;;;;;;;21.74;63.27;94033.56;5143411;28;20023;-79
2022/07/06 08:39:31;;;;;;;20.10;10.10;;;;;;;21.87;63.62;94030.50;5143594;28;20019;-83
2022/07/06 08:41:58;;;;;;;15.57;9.90;;;;;;;22.01;64.76;94017.00;5143325;28;20344;-81
2022/07/06 08:44:25;;;;;;;11.40;9.23;;;;;;;22.10;62.57;94011.97;5143537;28;20247;-81
2022/07/06 08:46:52;;;;;;;13.45;9.50;;;;;;;22.20;61.13;94021.34;5143785;28;20023;-81
2022/07/06 08:49:18;;;;;;;15.77;9.90;;;;;;;22.23;60.99;94021.38;5143605;28;20242;-80
2022/07/06 08:51:45;;;;;;;16.20;10.50;;;;;;;22.18;62.12;94020.94;5143314;28;20015;-80
2022/07/06 08:54:11;;;;;;;11.73;9.27;;;;;;;22.17;61.58;94022.88;5143227;28;20019;-81
2022/07/06 08:56:37;;;;;;;17.30;10.10;;;;;;;22.17;63.32;94028.31;5143408;28;20042;-80
2022/07/06 08:59:02;;;;;;;14.23;9.15;;;;;;;22.11;62.52;94035.28;5143418;28;20038;-89
2022/07/06 09:01:28;;;;;;;11.80;9.52;;;;;;;22.06;61.92;94024.75;5143802;28;20015;-81
2022/07/06 09:03:55;;;;;;;13.32;9.93;;;;;;;22.14;62.46;94023.63;5143298;28;20019;-81
2022/07/06 09:06:25;;;;;;;15.38;9.68;;;;;;;22.12;62.10;94020.53;5143580;28;20018;-79
2022/07/06 09:08:53;;;;;;;14.35;9.20;;;;;;;22.13;61.13;94024.81;5143380;28;20202;-81
2022/07/06 09:11:21;;;;;;;16.15;9.45;;;;;;;22.26;61.53;94016.34;5143506;28;20101;-80
2022/07/06 09:13:47;;;;;;;18.58;9.90;;;;;;;22.33;60.87;94019.88;5143398;28;20031;-80
2022/07/06 09:16:14;;;;;;;12.73;9.45;;;;;;;22.52;60.87;94015.25;5143213;28;20031;-80
2022/07/06 09:18:42;;;;;;;17.70;10.45;;;;;;;22.72;61.89;94023.81;5143153;28;20080;-81
2022/07/06 09:21:08;;;;;;;27.15;9.98;;;;;;;22.69;59.94;94025.34;5143211;28;20019;-82
2022/07/06 09:23:35;;;;;;;15.05;9.65;;;;;;;22.56;60.73;94024.94;5143294;28;20045;-82
2022/07/06 09:26:05;;;;;;;18.42;9.30;;;;;;;22.42;61.06;94022.97;5142968;28;20015;-79
2022/07/06 09:28:44;;;;;;;16.98;10.38;;;;;;;22.29;61.12;94029.94;5143313;28;20026;-83
2022/07/06 09:31:09;;;;;;;12.10;9.65;;;;;;;22.23;60.79;94017.88;5145351;27;20310;-79
2022/07/06 09:33:35;;;;;;;11.05;8.50;;;;;;;22.42;61.22;94028.41;5146809;27;20026;-83
2022/07/06 09:36:02;;;;;;;11.75;9.07;;;;;;;22.39;59.90;94014.84;5146794;27;20026;-80
2022/07/06 09:38:28;;;;;;;13.45;9.88;;;;;;;22.32;60.15;94033.81;5162805;27;20202;-81
2022/07/06 09:40:54;;;;;;;15.52;9.82;;;;;;;22.21;61.24;94023.66;5146701;27;20022;-80
2022/07/06 09:43:22;;;;;;;13.02;9.05;;;;;;;22.31;60.76;94021.38;5128424;27;20039;-82
2022/07/06 09:45:54;;;;;;;13.55;10.40;;;;;;;22.53;61.05;94028.44;5146742;27;20219;-82
2022/07/06 09:48:22;;;;;;;14.73;9.13;;;;;;;22.64;59.70;94007.50;5146801;27;20034;-83
2022/07/06 09:50:53;;;;;;;12.13;8.18;;;;;;;22.75;59.27;94010.22;5146849;27;20015;-84
2022/07/06 09:53:20;;;;;;;13.25;10.85;;;;;;;23.01;60.29;94009.09;5146768;27;21664;-83
2022/07/06 09:55:51;;;;;;;15.93;10.02;;;;;;;23.10;58.53;93997.06;5146544;27;20026;-82
2022/07/06 09:58:17;;;;;;;17.20;10.77;;;;;;;23.15;57.88;94007.56;5146241;27;20030;-80
2022/07/06 10:00:44;;;;;;;17.63;12.15;;;;;;;23.01;59.22;94009.09;5146513;27;20045;-82
2022/07/06 10:03:10;;;;;;;15.27;11.65;;;;;;;23.10;59.54;94010.66;5146470;27;20015;-81
2022/07/06 10:05:42;;;;;;;16.05;10.68;;;;;;;23.06;58.01;94007.16;5146290;27;20027;-81
2022/07/06 10:08:09;;;;;;;15.40;11.43;;;;;;;22.92;58.20;94007.91;5146388;27;20229;-82
2022/07/06 10:10:36;;;;;;;19.73;11.45;;;;;;;23.06;59.23;94015.31;5146083;27;20092;-82
2022/07/06 10:13:03;;;;;;;13.80;10.57;;;;;;;23.03;57.82;94006.00;5127849;27;20031;-81
2022/07/06 10:15:32;;;;;;;14.07;9.60;;;;;;;22.95;57.62;94010.63;5146140;27;20046;-85
2022/07/06 10:17:59;;;;;;;18.30;11.25;;;;;;;22.87;57.74;93997.44;5146285;27;20042;-84
2022/07/06 10:20:28;;;;;;;12.48;10.32;;;;;;;22.74;58.84;93999.75;5146164;27;20031;-91
2022/07/06 10:22:59;;;;;;;13.90;10.52;;;;;;;22.77;57.74;94004.41;5146273;27;20060;-85
2022/07/06 10:25:25;;;;;;;15.00;11.55;;;;;;;22.81;59.64;93997.03;5127709;27;20076;-84
2022/07/06 10:27:52;;;;;;;16.23;11.02;;;;;;;22.76;58.24;93995.47;5146076;27;20014;-85
2022/07/06 10:30:19;;;;;;;15.07;10.15;;;;;;;22.86;58.04;93990.44;5145895;27;20027;-84
2022/07/06 10:32:49;;;;;;;14.32;10.70;;;;;;;22.92;57.72;93984.22;5145624;27;20057;-84
2022/07/06 10:35:17;;;;;;;17.88;10.27;;;;;;;22.99;57.86;93991.59;5145761;27;20026;-87
2022/07/06 10:37:42;;;;;;;16.05;12.02;;;;;;;22.99;57.96;93992.38;5145806;27;20026;-85
2022/07/06 10:43:00;;;;;;;18.85;11.27;;;;;;;22.91;57.05;93998.19;5145695;27;20046;-86
2022/07/06 10:45:29;;;;;;;16.20;11.93;;;;;;;22.91;58.79;93982.66;5145257;27;20225;-80
2022/07/06 10:48:12;;;;;;;17.02;11.68;;;;;;;23.07;57.52;93992.41;5145503;27;20019;-86
2022/07/06 10:50:49;;;;;;;14.82;11.68;;;;;;;23.09;57.92;93998.25;5145360;27;20019;-84
2022/07/06 10:53:17;;;;;;;20.85;11.27;;;;;;;22.99;58.11;93983.44;5145184;27;20262;-83
2022/07/06 10:55:52;;;;;;;17.30;11.38;;;;;;;23.14;56.73;93985.03;5145890;27;20083;-92
2022/07/06 10:58:37;;;;;;;16.30;10.35;;;;;;;23.12;56.03;93994.72;5107634;28;20041;-90
2022/07/06 11:01:06;;;;;;;14.50;9.52;;;;;;;23.18;56.61;93996.69;5125845;28;20107;-90
2022/07/06 11:03:43;;;;;;;15.75;11.38;;;;;;;23.29;56.93;93987.72;5124640;28;20020;-84
2022/07/06 11:06:17;;;;;;;16.88;11.50;;;;;;;23.06;55.89;93986.22;5124569;28;20011;-83
2022/07/06 11:08:46;;;;;;;15.18;10.73;;;;;;;23.03;56.66;93995.91;5106482;28;20035;-83
2022/07/06 11:11:16;;;;;;;13.80;10.98;;;;;;;23.21;55.65;93981.53;5124461;28;20332;-84
2022/07/06 11:14:04;;;;;;;16.35;11.15;;;;;;;23.26;56.13;93983.06;5124464;28;20030;-84
2022/07/06 11:16:34;;;;;;;14.30;11.57;;;;;;;23.39;56.61;93997.81;5124320;28;20023;-84
2022/07/06 11:19:07;;;;;;;14.15;11.05;;;;;;;23.38;55.52;93972.53;5124448;28;20019;-85
2022/07/06 11:21:38;;;;;;;16.40;11.55;;;;;;;23.54;56.25;93977.56;5124278;28;20020;-85
2022/07/06 11:24:06;;;;;;;17.48;12.45;;;;;;;23.62;55.50;93970.94;5124107;28;20019;-85
2022/07/06 11:26:35;;;;;;;14.43;11.95;;;;;;;23.64;55.01;93974.03;5124025;28;20022;-84